sensor_id;sensor_type;location;lat;lon;timestamp;pressure;altitude;pressure_sealevel;temperature;humidity
77877;BME280;67251;50.844;7.978;2023-03-07T00:01:36;97314.25;;;-1.33;93.30
77877;BME280;67251;50.844;7.978;2023-03-07T00:04:02;97306.22;;;-1.32;93.55
77877;BME280;67251;50.844;7.978;2023-03-07T00:06:28;97313.13;;;-1.31;93.45
77877;BME280;67251;50.844;7.978;2023-03-07T00:08:58;97302.63;;;-1.31;93.36
77877;BME280;67251;50.844;7.978;2023-03-07T00:11:24;97307.06;;;-1.31;93.44
77877;BME280;67251;50.844;7.978;2023-03-07T00:13:51;97298.19;;;-1.30;93.51
77877;BME280;67251;50.844;7.978;2023-03-07T00:16:18;97302.28;;;-1.27;93.47
77877;BME280;67251;50.844;7.978;2023-03-07T00:18:44;97301.94;;;-1.24;93.59
77877;BME280;67251;50.844;7.978;2023-03-07T00:21:12;97298.69;;;-1.26;93.37
77877;BME280;67251;50.844;7.978;2023-03-07T00:23:40;97290.13;;;-1.29;93.56
77877;BME280;67251;50.844;7.978;2023-03-07T00:26:07;97288.69;;;-1.31;93.65
77877;BME280;67251;50.844;7.978;2023-03-07T00:28:33;97286.06;;;-1.31;93.74
77877;BME280;67251;50.844;7.978;2023-03-07T00:31:03;97282.13;;;-1.35;93.85
77877;BME280;67251;50.844;7.978;2023-03-07T00:33:29;97283.25;;;-1.38;93.76
77877;BME280;67251;50.844;7.978;2023-03-07T00:35:59;97273.75;;;-1.39;93.99
77877;BME280;67251;50.844;7.978;2023-03-07T00:38:26;97270.94;;;-1.37;93.93
77877;BME280;67251;50.844;7.978;2023-03-07T00:41:13;97270.63;;;-1.34;94.14
77877;BME280;67251;50.844;7.978;2023-03-07T00:43:38;97263.75;;;-1.35;94.27
77877;BME280;67251;50.844;7.978;2023-03-07T00:46:04;97263.75;;;-1.35;94.22
77877;BME280;67251;50.844;7.978;2023-03-07T00:48:32;97266.53;;;-1.37;94.14
77877;BME280;67251;50.844;7.978;2023-03-07T00:50:59;97258.66;;;-1.37;94.27
77877;BME280;67251;50.844;7.978;2023-03-07T00:53:24;97250.97;;;-1.38;94.28
77877;BME280;67251;50.844;7.978;2023-03-07T00:58:18;97250.63;;;-1.35;94.63
77877;BME280;67251;50.844;7.978;2023-03-07T01:00:44;97242.75;;;-1.35;94.79
77877;BME280;67251;50.844;7.978;2023-03-07T01:03:09;97234.91;;;-1.35;94.72
77877;BME280;67251;50.844;7.978;2023-03-07T01:05:38;97238.34;;;-1.35;94.77
77877;BME280;67251;50.844;7.978;2023-03-07T01:08:03;97239.16;;;-1.34;94.80
77877;BME280;67251;50.844;7.978;2023-03-07T01:10:29;97237.53;;;-1.35;94.70
77877;BME280;67251;50.844;7.978;2023-03-07T01:12:56;97230.63;;;-1.36;94.60
77877;BME280;67251;50.844;7.978;2023-03-07T01:15:21;97228.00;;;-1.36;94.74
77877;BME280;67251;50.844;7.978;2023-03-07T01:17:47;97232.28;;;-1.35;94.65
77877;BME280;67251;50.844;7.978;2023-03-07T01:20:12;97224.41;;;-1.35;94.88
77877;BME280;67251;50.844;7.978;2023-03-07T01:22:38;97217.34;;;-1.35;95.07
77877;BME280;67251;50.844;7.978;2023-03-07T01:25:03;97212.91;;;-1.34;94.91
77877;BME280;67251;50.844;7.978;2023-03-07T01:27:28;97207.66;;;-1.34;94.95
77877;BME280;67251;50.844;7.978;2023-03-07T01:29:54;97212.41;;;-1.38;95.00
77877;BME280;67251;50.844;7.978;2023-03-07T01:32:19;97199.16;;;-1.36;94.97
77877;BME280;67251;50.844;7.978;2023-03-07T01:34:45;97213.22;;;-1.37;95.13
77877;BME280;67251;50.844;7.978;2023-03-07T01:37:10;97202.28;;;-1.41;95.20
77877;BME280;67251;50.844;7.978;2023-03-07T01:39:36;97204.72;;;-1.39;94.98
77877;BME280;67251;50.844;7.978;2023-03-07T01:42:01;97209.66;;;-1.36;95.24
77877;BME280;67251;50.844;7.978;2023-03-07T01:44:26;97201.59;;;-1.35;95.26
77877;BME280;67251;50.844;7.978;2023-03-07T01:56:20;97190.59;;;-1.22;95.15
77877;BME280;67251;50.844;7.978;2023-03-07T01:58:46;97186.97;;;-1.21;95.18
77877;BME280;67251;50.844;7.978;2023-03-07T02:01:12;97183.69;;;-1.23;95.10
77877;BME280;67251;50.844;7.978;2023-03-07T02:06:29;97179.09;;;-1.21;95.31
77877;BME280;67251;50.844;7.978;2023-03-07T02:08:57;97170.41;;;-1.21;95.26
77877;BME280;67251;50.844;7.978;2023-03-07T02:11:24;97167.63;;;-1.20;95.16
77877;BME280;67251;50.844;7.978;2023-03-07T02:13:50;97162.19;;;-1.18;95.23
77877;BME280;67251;50.844;7.978;2023-03-07T02:16:16;97172.06;;;-1.20;95.27
77877;BME280;67251;50.844;7.978;2023-03-07T02:18:46;97163.00;;;-1.18;95.51
77877;BME280;67251;50.844;7.978;2023-03-07T02:21:34;97166.81;;;-1.20;95.22
77877;BME280;67251;50.844;7.978;2023-03-07T02:24:14;97162.06;;;-1.25;95.22
77877;BME280;67251;50.844;7.978;2023-03-07T02:26:43;97160.56;;;-1.27;95.23
77877;BME280;67251;50.844;7.978;2023-03-07T02:29:09;97156.00;;;-1.25;95.19
77877;BME280;67251;50.844;7.978;2023-03-07T02:31:34;97155.81;;;-1.24;95.27
77877;BME280;67251;50.844;7.978;2023-03-07T02:34:00;97151.75;;;-1.26;95.32
77877;BME280;67251;50.844;7.978;2023-03-07T02:36:31;97159.75;;;-1.28;95.38
77877;BME280;67251;50.844;7.978;2023-03-07T02:39:00;97154.50;;;-1.28;95.44
77877;BME280;67251;50.844;7.978;2023-03-07T02:41:31;97156.19;;;-1.27;95.39
77877;BME280;67251;50.844;7.978;2023-03-07T02:43:57;97152.72;;;-1.27;95.34
77877;BME280;67251;50.844;7.978;2023-03-07T02:46:24;97147.81;;;-1.31;95.31
77877;BME280;67251;50.844;7.978;2023-03-07T02:48:49;97149.31;;;-1.36;95.51
77877;BME280;67251;50.844;7.978;2023-03-07T02:51:15;97149.31;;;-1.36;95.76
77877;BME280;67251;50.844;7.978;2023-03-07T02:53:40;97138.63;;;-1.35;95.68
77877;BME280;67251;50.844;7.978;2023-03-07T02:56:06;97142.72;;;-1.32;95.62
77877;BME280;67251;50.844;7.978;2023-03-07T02:58:32;97141.09;;;-1.33;95.42
77877;BME280;67251;50.844;7.978;2023-03-07T03:00:58;97129.94;;;-1.35;95.78
77877;BME280;67251;50.844;7.978;2023-03-07T03:03:24;97131.91;;;-1.37;95.65
77877;BME280;67251;50.844;7.978;2023-03-07T03:05:50;97132.09;;;-1.39;95.67
77877;BME280;67251;50.844;7.978;2023-03-07T03:08:15;97136.53;;;-1.39;95.59
77877;BME280;67251;50.844;7.978;2023-03-07T03:10:41;97132.25;;;-1.40;95.74
77877;BME280;67251;50.844;7.978;2023-03-07T03:13:06;97131.59;;;-1.42;95.67
77877;BME280;67251;50.844;7.978;2023-03-07T03:15:32;97128.97;;;-1.42;95.83
77877;BME280;67251;50.844;7.978;2023-03-07T03:17:57;97129.97;;;-1.43;95.71
77877;BME280;67251;50.844;7.978;2023-03-07T03:20:23;97127.16;;;-1.42;95.86
77877;BME280;67251;50.844;7.978;2023-03-07T03:22:50;97126.34;;;-1.42;95.73
77877;BME280;67251;50.844;7.978;2023-03-07T03:25:16;97126.34;;;-1.42;95.88
77877;BME280;67251;50.844;7.978;2023-03-07T03:27:45;97127.34;;;-1.43;95.77
77877;BME280;67251;50.844;7.978;2023-03-07T03:30:11;97123.91;;;-1.44;95.77
77877;BME280;67251;50.844;7.978;2023-03-07T03:32:39;97124.09;;;-1.45;95.77
77877;BME280;67251;50.844;7.978;2023-03-07T03:35:06;97125.53;;;-1.43;95.83
77877;BME280;67251;50.844;7.978;2023-03-07T03:37:31;97121.59;;;-1.47;95.61
77877;BME280;67251;50.844;7.978;2023-03-07T03:39:57;97118.16;;;-1.47;95.83
77877;BME280;67251;50.844;7.978;2023-03-07T03:42:22;97114.56;;;-1.46;95.73
77877;BME280;67251;50.844;7.978;2023-03-07T03:44:48;97115.38;;;-1.46;95.82
77877;BME280;67251;50.844;7.978;2023-03-07T03:47:14;97109.31;;;-1.46;95.65
77877;BME280;67251;50.844;7.978;2023-03-07T03:49:39;97112.09;;;-1.48;95.96
77877;BME280;67251;50.844;7.978;2023-03-07T03:52:05;97113.75;;;-1.47;95.72
77877;BME280;67251;50.844;7.978;2023-03-07T03:54:31;97103.25;;;-1.47;95.71
77877;BME280;67251;50.844;7.978;2023-03-07T03:56:56;97110.97;;;-1.45;95.89
77877;BME280;67251;50.844;7.978;2023-03-07T03:59:22;97100.47;;;-1.45;95.91
77877;BME280;67251;50.844;7.978;2023-03-07T04:01:47;97104.72;;;-1.44;95.77
77877;BME280;67251;50.844;7.978;2023-03-07T04:04:13;97106.34;;;-1.43;96.02
77877;BME280;67251;50.844;7.978;2023-03-07T04:06:39;97103.72;;;-1.43;95.91
77877;BME280;67251;50.844;7.978;2023-03-07T04:09:04;97096.69;;;-1.43;96.08
77877;BME280;67251;50.844;7.978;2023-03-07T04:11:31;97093.06;;;-1.42;95.92
77877;BME280;67251;50.844;7.978;2023-03-07T04:13:57;97101.59;;;-1.40;95.73
77877;BME280;67251;50.844;7.978;2023-03-07T04:16:23;97098.81;;;-1.38;95.83
77877;BME280;67251;50.844;7.978;2023-03-07T04:18:49;97098.63;;;-1.37;95.97
77877;BME280;67251;50.844;7.978;2023-03-07T04:21:16;97091.59;;;-1.36;95.87
77877;BME280;67251;50.844;7.978;2023-03-07T04:23:41;97095.84;;;-1.35;95.80
77877;BME280;67251;50.844;7.978;2023-03-07T04:26:08;97088.78;;;-1.35;95.91
77877;BME280;67251;50.844;7.978;2023-03-07T04:28:40;97083.38;;;-1.33;95.91
77877;BME280;67251;50.844;7.978;2023-03-07T04:31:27;97080.75;;;-1.33;95.89
77877;BME280;67251;50.844;7.978;2023-03-07T04:33:54;97073.34;;;-1.30;95.81
77877;BME280;67251;50.844;7.978;2023-03-07T04:36:22;97071.38;;;-1.27;95.91
77877;BME280;67251;50.844;7.978;2023-03-07T04:38:48;97070.22;;;-1.25;96.07
77877;BME280;67251;50.844;7.978;2023-03-07T04:41:17;97069.22;;;-1.24;95.83
77877;BME280;67251;50.844;7.978;2023-03-07T04:43:42;97068.41;;;-1.24;96.07
77877;BME280;67251;50.844;7.978;2023-03-07T04:46:09;97063.00;;;-1.23;96.00
77877;BME280;67251;50.844;7.978;2023-03-07T04:48:34;97067.91;;;-1.20;95.82
77877;BME280;67251;50.844;7.978;2023-03-07T04:51:00;97063.28;;;-1.18;96.16
77877;BME280;67251;50.844;7.978;2023-03-07T04:53:25;97058.72;;;-1.16;95.95
77877;BME280;67251;50.844;7.978;2023-03-07T04:55:58;97054.91;;;-1.13;96.06
77877;BME280;67251;50.844;7.978;2023-03-07T04:58:25;97049.50;;;-1.12;96.06
77877;BME280;67251;50.844;7.978;2023-03-07T05:00:50;97045.88;;;-1.11;95.81
77877;BME280;67251;50.844;7.978;2023-03-07T05:03:15;97049.13;;;-1.09;95.89
77877;BME280;67251;50.844;7.978;2023-03-07T05:05:41;97042.25;;;-1.10;95.98
77877;BME280;67251;50.844;7.978;2023-03-07T05:08:06;97044.72;;;-1.08;96.18
77877;BME280;67251;50.844;7.978;2023-03-07T05:10:33;97044.38;;;-1.05;95.91
77877;BME280;67251;50.844;7.978;2023-03-07T05:12:59;97032.88;;;-1.04;96.06
77877;BME280;67251;50.844;7.978;2023-03-07T05:15:26;97040.59;;;-1.02;95.99
77877;BME280;67251;50.844;7.978;2023-03-07T05:17:52;97034.34;;;-1.01;95.98
77877;BME280;67251;50.844;7.978;2023-03-07T05:20:17;97032.53;;;-1.01;95.97
77877;BME280;67251;50.844;7.978;2023-03-07T05:22:44;97030.53;;;-0.99;95.85
77877;BME280;67251;50.844;7.978;2023-03-07T05:25:09;97025.97;;;-0.97;95.87
77877;BME280;67251;50.844;7.978;2023-03-07T05:27:34;97015.13;;;-0.94;96.25
77877;BME280;67251;50.844;7.978;2023-03-07T05:30:00;97020.81;;;-0.90;95.88
77877;BME280;67251;50.844;7.978;2023-03-07T05:32:25;97018.19;;;-0.90;95.97
77877;BME280;67251;50.844;7.978;2023-03-07T05:34:51;97003.44;;;-0.91;95.95
77877;BME280;67251;50.844;7.978;2023-03-07T05:37:16;97004.25;;;-0.91;95.94
77877;BME280;67251;50.844;7.978;2023-03-07T05:39:42;97010.31;;;-0.90;95.81
77877;BME280;67251;50.844;7.978;2023-03-07T05:42:07;97002.63;;;-0.92;95.80
77877;BME280;67251;50.844;7.978;2023-03-07T05:44:33;97008.50;;;-0.90;95.51
77877;BME280;67251;50.844;7.978;2023-03-07T05:46:59;97011.13;;;-0.90;95.69
77877;BME280;67251;50.844;7.978;2023-03-07T05:49:24;97006.34;;;-0.86;95.98
77877;BME280;67251;50.844;7.978;2023-03-07T05:51:50;97002.72;;;-0.85;95.95
77877;BME280;67251;50.844;7.978;2023-03-07T05:54:15;96994.69;;;-0.84;95.82
77877;BME280;67251;50.844;7.978;2023-03-07T05:56:41;96991.91;;;-0.82;96.08
77877;BME280;67251;50.844;7.978;2023-03-07T05:59:06;96991.91;;;-0.82;95.79
77877;BME280;67251;50.844;7.978;2023-03-07T06:01:32;96992.19;;;-0.77;95.88
77877;BME280;67251;50.844;7.978;2023-03-07T06:03:58;96983.16;;;-0.74;95.83
77877;BME280;67251;50.844;7.978;2023-03-07T06:06:24;96982.78;;;-0.71;95.69
77877;BME280;67251;50.844;7.978;2023-03-07T06:08:49;96988.84;;;-0.71;95.49
77877;BME280;67251;50.844;7.978;2023-03-07T06:11:14;96984.88;;;-0.67;95.49
77877;BME280;67251;50.844;7.978;2023-03-07T06:13:40;96988.16;;;-0.65;95.32
77877;BME280;67251;50.844;7.978;2023-03-07T06:16:05;96990.59;;;-0.63;95.34
77877;BME280;67251;50.844;7.978;2023-03-07T06:18:32;96995.03;;;-0.64;95.36
77877;BME280;67251;50.844;7.978;2023-03-07T06:20:59;96992.22;;;-0.62;95.23
77877;BME280;67251;50.844;7.978;2023-03-07T06:23:26;96993.03;;;-0.62;95.23
77877;BME280;67251;50.844;7.978;2023-03-07T06:25:53;96995.31;;;-0.59;95.08
77877;BME280;67251;50.844;7.978;2023-03-07T06:28:18;96999.78;;;-0.59;94.94
77877;BME280;67251;50.844;7.978;2023-03-07T06:30:44;96990.06;;;-0.59;94.95
77877;BME280;67251;50.844;7.978;2023-03-07T06:33:10;96994.31;;;-0.58;94.80
77877;BME280;67251;50.844;7.978;2023-03-07T06:35:39;96991.69;;;-0.58;94.73
77877;BME280;67251;50.844;7.978;2023-03-07T06:38:06;96986.28;;;-0.56;94.72
77877;BME280;67251;50.844;7.978;2023-03-07T06:40:32;96995.63;;;-0.54;94.63
77877;BME280;67251;50.844;7.978;2023-03-07T06:42:57;97003.31;;;-0.52;94.53
77877;BME280;67251;50.844;7.978;2023-03-07T06:45:23;97000.88;;;-0.54;94.63
77877;BME280;67251;50.844;7.978;2023-03-07T06:47:48;96991.34;;;-0.55;94.64
77877;BME280;67251;50.844;7.978;2023-03-07T06:50:14;97003.31;;;-0.52;94.73
77877;BME280;67251;50.844;7.978;2023-03-07T06:52:40;96999.25;;;-0.55;94.60
77877;BME280;67251;50.844;7.978;2023-03-07T06:55:06;96996.44;;;-0.53;94.52
77877;BME280;67251;50.844;7.978;2023-03-07T06:57:32;96993.66;;;-0.52;94.52
77877;BME280;67251;50.844;7.978;2023-03-07T06:59:58;96994.09;;;-0.48;94.32
77877;BME280;67251;50.844;7.978;2023-03-07T07:02:24;96993.56;;;-0.43;94.26
77877;BME280;67251;50.844;7.978;2023-03-07T07:04:50;96985.31;;;-0.40;94.08
77877;BME280;67251;50.844;7.978;2023-03-07T07:07:15;96992.34;;;-0.33;94.08
77877;BME280;67251;50.844;7.978;2023-03-07T07:09:41;96996.69;;;-0.25;93.75
77877;BME280;67251;50.844;7.978;2023-03-07T07:12:06;96989.25;;;-0.21;93.41
77877;BME280;67251;50.844;7.978;2023-03-07T07:14:32;96992.50;;;-0.19;93.42
77877;BME280;67251;50.844;7.978;2023-03-07T07:16:58;96996.97;;;-0.20;93.28
77877;BME280;67251;50.844;7.978;2023-03-07T07:19:24;96991.53;;;-0.18;93.39
77877;BME280;67251;50.844;7.978;2023-03-07T07:21:51;96993.63;;;-0.14;93.27
77877;BME280;67251;50.844;7.978;2023-03-07T07:24:16;96983.41;;;-0.09;93.16
77877;BME280;67251;50.844;7.978;2023-03-07T07:26:42;96974.97;;;-0.04;92.71
77877;BME280;67251;50.844;7.978;2023-03-07T07:29:08;96984.69;;;-0.05;92.57
77877;BME280;67251;50.844;7.978;2023-03-07T07:31:34;96983.28;;;-0.01;92.63
77877;BME280;67251;50.844;7.978;2023-03-07T07:33:59;96988.38;;;0.01;92.44
77877;BME280;67251;50.844;7.978;2023-03-07T07:36:25;96985.03;;;0.07;92.35
77877;BME280;67251;50.844;7.978;2023-03-07T07:38:52;96982.78;;;0.19;92.15
77877;BME280;67251;50.844;7.978;2023-03-07T07:41:17;96980.22;;;0.25;91.50
77877;BME280;67251;50.844;7.978;2023-03-07T07:43:43;96979.13;;;0.35;91.34
77877;BME280;67251;50.844;7.978;2023-03-07T07:46:11;96983.94;;;0.31;90.88
77877;BME280;67251;50.844;7.978;2023-03-07T07:48:36;96986.56;;;0.31;91.09
77877;BME280;67251;50.844;7.978;2023-03-07T07:51:02;96977.88;;;0.31;90.73
77877;BME280;67251;50.844;7.978;2023-03-07T07:53:28;96981.66;;;0.28;90.88
77877;BME280;67251;50.844;7.978;2023-03-07T07:55:54;96976.69;;;0.33;91.11
77877;BME280;67251;50.844;7.978;2023-03-07T07:58:19;96983.75;;;0.47;90.95
77877;BME280;67251;50.844;7.978;2023-03-07T08:00:45;96970.13;;;0.59;90.00
77877;BME280;67251;50.844;7.978;2023-03-07T08:03:10;96981.44;;;0.74;89.72
77877;BME280;67251;50.844;7.978;2023-03-07T08:05:36;96983.72;;;0.77;88.60
77877;BME280;67251;50.844;7.978;2023-03-07T08:08:01;96978.44;;;0.77;88.04
77877;BME280;67251;50.844;7.978;2023-03-07T08:10:27;96969.53;;;0.78;88.31
77877;BME280;67251;50.844;7.978;2023-03-07T08:12:53;96980.06;;;0.78;88.43
77877;BME280;67251;50.844;7.978;2023-03-07T08:15:19;96981.44;;;0.74;88.00
77877;BME280;67251;50.844;7.978;2023-03-07T08:17:48;96982.19;;;0.68;87.62
77877;BME280;67251;50.844;7.978;2023-03-07T08:20:15;96977.28;;;0.65;88.08
77877;BME280;67251;50.844;7.978;2023-03-07T08:22:41;96981.91;;;0.63;88.56
77877;BME280;67251;50.844;7.978;2023-03-07T08:25:15;96980.09;;;0.63;88.86
77877;BME280;67251;50.844;7.978;2023-03-07T08:27:41;96977.91;;;0.67;88.65
77877;BME280;67251;50.844;7.978;2023-03-07T08:30:07;96983.44;;;0.72;88.81
77877;BME280;67251;50.844;7.978;2023-03-07T08:32:33;96982.91;;;0.76;87.98
77877;BME280;67251;50.844;7.978;2023-03-07T08:34:58;96980.25;;;0.76;87.81
77877;BME280;67251;50.844;7.978;2023-03-07T08:37:24;96985.13;;;0.80;88.04
77877;BME280;67251;50.844;7.978;2023-03-07T08:39:49;96976.25;;;0.81;88.62
77877;BME280;67251;50.844;7.978;2023-03-07T08:42:15;96974.81;;;0.78;87.97
77877;BME280;67251;50.844;7.978;2023-03-07T08:44:40;96972.91;;;0.72;87.71
77877;BME280;67251;50.844;7.978;2023-03-07T08:47:06;96976.25;;;0.81;87.74
77877;BME280;67251;50.844;7.978;2023-03-07T08:49:35;96985.38;;;0.99;87.67
77877;BME280;67251;50.844;7.978;2023-03-07T08:52:01;96968.97;;;1.19;87.11
77877;BME280;67251;50.844;7.978;2023-03-07T08:54:27;96970.22;;;1.23;86.52
77877;BME280;67251;50.844;7.978;2023-03-07T08:56:53;96968.31;;;1.17;86.77
77877;BME280;67251;50.844;7.978;2023-03-07T08:59:20;96970.34;;;1.15;86.15
77877;BME280;67251;50.844;7.978;2023-03-07T09:01:45;96964.81;;;1.10;86.68
77877;BME280;67251;50.844;7.978;2023-03-07T09:04:10;96972.97;;;1.15;86.58
77877;BME280;67251;50.844;7.978;2023-03-07T09:06:36;96970.25;;;1.08;86.81
77877;BME280;67251;50.844;7.978;2023-03-07T09:09:02;96977.47;;;0.99;87.36
77877;BME280;67251;50.844;7.978;2023-03-07T09:11:30;96966.50;;;0.96;87.79
77877;BME280;67251;50.844;7.978;2023-03-07T09:13:56;96973.09;;;1.07;87.50
77877;BME280;67251;50.844;7.978;2023-03-07T09:16:22;96970.59;;;1.20;86.77
77877;BME280;67251;50.844;7.978;2023-03-07T09:18:49;96973.59;;;1.17;86.97
77877;BME280;67251;50.844;7.978;2023-03-07T09:21:15;96968.41;;;1.23;87.12
77877;BME280;67251;50.844;7.978;2023-03-07T09:23:41;96976.34;;;1.30;87.32
77877;BME280;67251;50.844;7.978;2023-03-07T09:26:07;96970.50;;;1.35;86.61
77877;BME280;67251;50.844;7.978;2023-03-07T09:28:33;96970.72;;;1.33;87.24
77877;BME280;67251;50.844;7.978;2023-03-07T09:30:58;96977.81;;;1.33;86.36
77877;BME280;67251;50.844;7.978;2023-03-07T09:33:23;96968.41;;;1.23;86.76
77877;BME280;67251;50.844;7.978;2023-03-07T09:35:49;96970.25;;;1.30;86.65
77877;BME280;67251;50.844;7.978;2023-03-07T09:38:15;96967.44;;;1.31;87.50
77877;BME280;67251;50.844;7.978;2023-03-07T09:40:44;96964.44;;;1.34;86.96
77877;BME280;67251;50.844;7.978;2023-03-07T09:43:21;96965.38;;;1.26;87.14
77877;BME280;67251;50.844;7.978;2023-03-07T09:48:47;96967.13;;;1.19;88.15
77877;BME280;67251;50.844;7.978;2023-03-07T09:51:30;96962.47;;;1.21;87.98
77877;BME280;67251;50.844;7.978;2023-03-07T09:54:36;96955.06;;;1.32;86.55
77877;BME280;67251;50.844;7.978;2023-03-07T09:56:58;96956.56;;;1.41;87.42
77877;BME280;67251;50.844;7.978;2023-03-07T09:59:33;96956.78;;;1.39;87.03
77877;BME280;67251;50.844;7.978;2023-03-07T10:02:14;96954.94;;;1.40;87.57
77877;BME280;67251;50.844;7.978;2023-03-07T10:04:49;96951.63;;;1.31;86.90
77877;BME280;67251;50.844;7.978;2023-03-07T10:07:18;96952.63;;;1.30;87.40
77877;BME280;67251;50.844;7.978;2023-03-07T10:09:46;96938.44;;;1.31;87.53
77877;BME280;67251;50.844;7.978;2023-03-07T10:12:37;96944.97;;;1.35;86.67
77877;BME280;67251;50.844;7.978;2023-03-07T10:25:50;96941.53;;;1.84;86.18
77877;BME280;67251;50.844;7.978;2023-03-07T10:28:31;96945.13;;;1.83;85.76
77877;BME280;67251;50.844;7.978;2023-03-07T10:31:04;96937.06;;;1.85;86.35
77877;BME280;67251;50.844;7.978;2023-03-07T10:33:34;96930.41;;;1.95;86.25
77877;BME280;67251;50.844;7.978;2023-03-07T10:36:05;96931.09;;;2.04;84.30
77877;BME280;67251;50.844;7.978;2023-03-07T10:38:38;96926.47;;;2.13;84.73
77877;BME280;67251;50.844;7.978;2023-03-07T10:41:15;96926.53;;;2.26;84.66
77877;BME280;67251;50.844;7.978;2023-03-07T10:43:42;96921.41;;;2.59;83.83
77877;BME280;67251;50.844;7.978;2023-03-07T10:48:38;96923.47;;;2.70;83.37
77877;BME280;67251;50.844;7.978;2023-03-07T10:53:56;96911.88;;;2.71;83.79
77877;BME280;67251;50.844;7.978;2023-03-07T10:56:21;96920.81;;;2.70;82.68
77877;BME280;67251;50.844;7.978;2023-03-07T10:59:05;96912.84;;;2.50;83.86
77877;BME280;67251;50.844;7.978;2023-03-07T11:01:34;96916.53;;;2.63;84.50
77877;BME280;67251;50.844;7.978;2023-03-07T11:04:06;96913.13;;;2.82;84.84
77877;BME280;67251;50.844;7.978;2023-03-07T11:06:39;96915.97;;;2.80;83.60
77877;BME280;67251;50.844;7.978;2023-03-07T11:09:21;96907.63;;;2.77;84.18
77877;BME280;67251;50.844;7.978;2023-03-07T11:11:56;96907.66;;;2.84;84.23
77877;BME280;67251;50.844;7.978;2023-03-07T11:14:23;96905.22;;;2.95;84.61
77877;BME280;67251;50.844;7.978;2023-03-07T11:16:58;96899.16;;;3.01;83.78
77877;BME280;67251;50.844;7.978;2023-03-07T11:19:41;96903.44;;;3.02;84.01
77877;BME280;67251;50.844;7.978;2023-03-07T11:22:25;96904.84;;;2.98;84.15
77877;BME280;67251;50.844;7.978;2023-03-07T11:24:55;96897.91;;;2.91;83.75
77877;BME280;67251;50.844;7.978;2023-03-07T11:27:23;96899.72;;;2.90;84.58
77877;BME280;67251;50.844;7.978;2023-03-07T11:33:36;96891.00;;;2.90;84.76
77877;BME280;67251;50.844;7.978;2023-03-07T11:36:16;96896.66;;;2.87;85.20
77877;BME280;67251;50.844;7.978;2023-03-07T11:41:31;96899.91;;;2.69;85.64
77877;BME280;67251;50.844;7.978;2023-03-07T11:49:42;96889.34;;;2.82;85.25
77877;BME280;67251;50.844;7.978;2023-03-07T11:57:55;96873.97;;;3.32;82.27
77877;BME280;67251;50.844;7.978;2023-03-07T12:22:34;96864.81;;;3.01;84.17
77877;BME280;67251;50.844;7.978;2023-03-07T12:27:42;96862.16;;;2.88;83.52
77877;BME280;67251;50.844;7.978;2023-03-07T12:30:19;96864.16;;;2.86;84.27
77877;BME280;67251;50.844;7.978;2023-03-07T12:32:48;96860.13;;;2.90;84.75
77877;BME280;67251;50.844;7.978;2023-03-07T12:35:47;96857.91;;;2.87;84.51
77877;BME280;67251;50.844;7.978;2023-03-07T12:38:33;96861.53;;;2.86;84.53
77877;BME280;67251;50.844;7.978;2023-03-07T12:41:08;96853.81;;;2.85;84.52
77877;BME280;67251;50.844;7.978;2023-03-07T12:43:43;96856.44;;;2.85;84.80
77877;BME280;67251;50.844;7.978;2023-03-07T12:46:48;96869.44;;;2.79;84.85
77877;BME280;67251;50.844;7.978;2023-03-07T12:49:23;96856.47;;;2.78;85.20
77877;BME280;67251;50.844;7.978;2023-03-07T12:51:57;96860.91;;;2.71;84.90
77877;BME280;67251;50.844;7.978;2023-03-07T12:54:28;96854.81;;;2.64;84.69
77877;BME280;67251;50.844;7.978;2023-03-07T12:56:56;96857.03;;;2.60;84.64
77877;BME280;67251;50.844;7.978;2023-03-07T12:59:26;96860.03;;;2.50;84.52
77877;BME280;67251;50.844;7.978;2023-03-07T13:02:14;96855.56;;;2.51;84.55
77877;BME280;67251;50.844;7.978;2023-03-07T13:04:41;96854.16;;;2.62;84.89
77877;BME280;67251;50.844;7.978;2023-03-07T13:07:10;96849.72;;;2.69;84.60
77877;BME280;67251;50.844;7.978;2023-03-07T13:09:39;96854.41;;;2.80;84.75
77877;BME280;67251;50.844;7.978;2023-03-07T13:12:36;96847.31;;;2.94;84.21
77877;BME280;67251;50.844;7.978;2023-03-07T13:27:57;96835.53;;;3.10;83.08
77877;BME280;67251;50.844;7.978;2023-03-07T13:30:30;96838.59;;;3.00;83.09
77877;BME280;67251;50.844;7.978;2023-03-07T13:32:56;96836.16;;;2.92;82.24
77877;BME280;67251;50.844;7.978;2023-03-07T13:43:07;96833.69;;;2.84;82.22
77877;BME280;67251;50.844;7.978;2023-03-07T13:53:36;96827.16;;;2.66;83.38
77877;BME280;67251;50.844;7.978;2023-03-07T13:56:18;96838.53;;;2.60;82.85
77877;BME280;67251;50.844;7.978;2023-03-07T14:06:48;96831.25;;;2.75;82.24
77877;BME280;67251;50.844;7.978;2023-03-07T14:09:20;96827.41;;;2.78;81.72
77877;BME280;67251;50.844;7.978;2023-03-07T14:20:46;96837.72;;;2.73;83.26
77877;BME280;67251;50.844;7.978;2023-03-07T14:25:51;96841.00;;;2.68;83.92
77877;BME280;67251;50.844;7.978;2023-03-07T14:28:24;96834.28;;;2.72;84.09
77877;BME280;67251;50.844;7.978;2023-03-07T14:30:56;96835.72;;;2.75;83.49
77877;BME280;67251;50.844;7.978;2023-03-07T14:33:36;96842.41;;;2.77;82.70
77877;BME280;67251;50.844;7.978;2023-03-07T14:36:15;96841.00;;;2.81;83.23
77877;BME280;67251;50.844;7.978;2023-03-07T14:38:43;96843.44;;;2.90;82.91
77877;BME280;67251;50.844;7.978;2023-03-07T14:41:27;96832.47;;;2.86;83.06
77877;BME280;67251;50.844;7.978;2023-03-07T14:52:29;96843.78;;;2.53;83.82
77877;BME280;67251;50.844;7.978;2023-03-07T14:54:55;96853.31;;;2.48;84.30
77877;BME280;67251;50.844;7.978;2023-03-07T14:57:30;96854.72;;;2.37;83.47
77877;BME280;67251;50.844;7.978;2023-03-07T15:02:34;96869.25;;;2.20;85.40
77877;BME280;67251;50.844;7.978;2023-03-07T15:04:59;96861.72;;;2.10;85.40
77877;BME280;67251;50.844;7.978;2023-03-07T15:07:25;96866.34;;;2.01;86.24
77877;BME280;67251;50.844;7.978;2023-03-07T15:09:50;96872.59;;;1.94;86.97
77877;BME280;67251;50.844;7.978;2023-03-07T15:12:20;96878.03;;;1.86;87.26
77877;BME280;67251;50.844;7.978;2023-03-07T15:14:51;96869.22;;;1.72;87.90
77877;BME280;67251;50.844;7.978;2023-03-07T15:17:22;96871.03;;;1.65;88.33
77877;BME280;67251;50.844;7.978;2023-03-07T15:19:59;96872.59;;;1.59;88.66
77877;BME280;67251;50.844;7.978;2023-03-07T15:22:29;96864.88;;;1.58;89.01
77877;BME280;67251;50.844;7.978;2023-03-07T15:24:57;96870.34;;;1.56;89.10
77877;BME280;67251;50.844;7.978;2023-03-07T15:27:25;96870.13;;;1.51;89.34